sensor_id;sensor_type;location;lat;lon;timestamp;P1;durP1;ratioP1;P2;durP2;ratioP2
19343;SDS011;9808;52.402;16.678;2023-05-07T00:00:21;12.53;;;7.30;;
19343;SDS011;9808;52.402;16.678;2023-05-07T00:02:48;11.63;;;6.87;;
19343;SDS011;9808;52.402;16.678;2023-05-07T00:05:15;15.13;;;7.33;;
19343;SDS011;9808;52.402;16.678;2023-05-07T00:07:44;12.73;;;6.53;;
19343;SDS011;9808;52.402;16.678;2023-05-07T00:10:11;14.70;;;6.77;;
19343;SDS011;9808;52.402;16.678;2023-05-07T00:12:39;15.70;;;6.60;;
19343;SDS011;9808;52.402;16.678;2023-05-07T00:15:07;13.67;;;6.17;;
19343;SDS011;9808;52.402;16.678;2023-05-07T00:17:35;12.80;;;6.90;;
19343;SDS011;9808;52.402;16.678;2023-05-07T00:20:02;15.37;;;6.93;;
19343;SDS011;9808;52.402;16.678;2023-05-07T00:22:52;13.17;;;6.50;;
19343;SDS011;9808;52.402;16.678;2023-05-07T00:25:28;11.13;;;5.50;;
19343;SDS011;9808;52.402;16.678;2023-05-07T00:27:55;12.10;;;5.87;;
19343;SDS011;9808;52.402;16.678;2023-05-07T00:30:28;12.90;;;6.17;;
19343;SDS011;9808;52.402;16.678;2023-05-07T00:32:56;12.00;;;5.90;;
19343;SDS011;9808;52.402;16.678;2023-05-07T00:35:28;11.03;;;6.07;;
19343;SDS011;9808;52.402;16.678;2023-05-07T00:37:56;10.90;;;5.80;;
19343;SDS011;9808;52.402;16.678;2023-05-07T00:40:23;12.87;;;6.30;;
19343;SDS011;9808;52.402;16.678;2023-05-07T00:42:51;13.80;;;5.93;;
19343;SDS011;9808;52.402;16.678;2023-05-07T00:45:23;12.63;;;6.00;;
19343;SDS011;9808;52.402;16.678;2023-05-07T00:47:57;10.50;;;5.50;;
19343;SDS011;9808;52.402;16.678;2023-05-07T00:50:26;17.40;;;6.37;;
19343;SDS011;9808;52.402;16.678;2023-05-07T00:52:56;10.43;;;5.67;;
19343;SDS011;9808;52.402;16.678;2023-05-07T00:55:24;10.30;;;5.33;;
19343;SDS011;9808;52.402;16.678;2023-05-07T00:57:51;10.27;;;5.70;;
19343;SDS011;9808;52.402;16.678;2023-05-07T01:00:20;10.23;;;5.17;;
19343;SDS011;9808;52.402;16.678;2023-05-07T01:02:51;11.03;;;5.33;;
19343;SDS011;9808;52.402;16.678;2023-05-07T01:05:22;12.53;;;5.60;;
19343;SDS011;9808;52.402;16.678;2023-05-07T01:08:15;10.20;;;5.83;;
19343;SDS011;9808;52.402;16.678;2023-05-07T01:10:43;10.77;;;5.83;;
19343;SDS011;9808;52.402;16.678;2023-05-07T01:13:11;13.97;;;6.00;;
19343;SDS011;9808;52.402;16.678;2023-05-07T01:15:39;10.97;;;5.90;;
19343;SDS011;9808;52.402;16.678;2023-05-07T01:18:09;11.67;;;6.17;;
19343;SDS011;9808;52.402;16.678;2023-05-07T01:20:37;16.53;;;6.53;;
19343;SDS011;9808;52.402;16.678;2023-05-07T01:23:04;14.90;;;6.70;;
19343;SDS011;9808;52.402;16.678;2023-05-07T01:25:32;12.37;;;6.87;;
19343;SDS011;9808;52.402;16.678;2023-05-07T01:27:59;13.43;;;6.77;;
19343;SDS011;9808;52.402;16.678;2023-05-07T01:30:27;13.50;;;7.63;;
19343;SDS011;9808;52.402;16.678;2023-05-07T01:33:03;12.40;;;6.60;;
19343;SDS011;9808;52.402;16.678;2023-05-07T01:35:38;15.43;;;6.80;;
19343;SDS011;9808;52.402;16.678;2023-05-07T01:38:06;13.93;;;7.33;;
19343;SDS011;9808;52.402;16.678;2023-05-07T01:40:33;13.83;;;7.70;;
19343;SDS011;9808;52.402;16.678;2023-05-07T01:43:04;14.70;;;7.53;;
19343;SDS011;9808;52.402;16.678;2023-05-07T01:45:32;14.33;;;7.63;;
19343;SDS011;9808;52.402;16.678;2023-05-07T01:48:00;13.93;;;7.63;;
19343;SDS011;9808;52.402;16.678;2023-05-07T01:50:27;12.90;;;7.60;;
19343;SDS011;9808;52.402;16.678;2023-05-07T01:52:55;13.73;;;7.07;;
19343;SDS011;9808;52.402;16.678;2023-05-07T01:55:22;13.60;;;7.20;;
19343;SDS011;9808;52.402;16.678;2023-05-07T01:57:50;12.00;;;6.60;;
19343;SDS011;9808;52.402;16.678;2023-05-07T02:00:17;12.50;;;7.10;;
19343;SDS011;9808;52.402;16.678;2023-05-07T02:02:45;15.30;;;6.80;;
19343;SDS011;9808;52.402;16.678;2023-05-07T02:05:12;17.27;;;7.47;;
19343;SDS011;9808;52.402;16.678;2023-05-07T02:07:40;13.57;;;7.10;;
19343;SDS011;9808;52.402;16.678;2023-05-07T02:10:07;11.80;;;7.10;;
19343;SDS011;9808;52.402;16.678;2023-05-07T02:12:35;18.63;;;6.83;;
19343;SDS011;9808;52.402;16.678;2023-05-07T02:15:02;14.13;;;7.00;;
19343;SDS011;9808;52.402;16.678;2023-05-07T02:17:29;14.33;;;7.50;;
19343;SDS011;9808;52.402;16.678;2023-05-07T02:19:58;13.37;;;6.90;;
19343;SDS011;9808;52.402;16.678;2023-05-07T02:22:26;18.97;;;7.47;;
19343;SDS011;9808;52.402;16.678;2023-05-07T02:24:53;16.30;;;7.80;;
19343;SDS011;9808;52.402;16.678;2023-05-07T02:27:21;14.03;;;7.10;;
19343;SDS011;9808;52.402;16.678;2023-05-07T02:29:48;14.63;;;7.27;;
19343;SDS011;9808;52.402;16.678;2023-05-07T02:32:15;14.73;;;7.63;;
19343;SDS011;9808;52.402;16.678;2023-05-07T02:34:42;18.40;;;8.03;;
19343;SDS011;9808;52.402;16.678;2023-05-07T02:37:10;16.40;;;7.40;;
19343;SDS011;9808;52.402;16.678;2023-05-07T02:39:37;15.33;;;8.10;;
19343;SDS011;9808;52.402;16.678;2023-05-07T02:42:05;13.50;;;7.80;;
19343;SDS011;9808;52.402;16.678;2023-05-07T02:44:32;18.57;;;8.43;;
19343;SDS011;9808;52.402;16.678;2023-05-07T02:46:59;17.60;;;8.47;;
19343;SDS011;9808;52.402;16.678;2023-05-07T02:49:26;14.43;;;7.47;;
19343;SDS011;9808;52.402;16.678;2023-05-07T02:51:54;19.20;;;8.00;;
19343;SDS011;9808;52.402;16.678;2023-05-07T02:54:22;15.73;;;8.40;;
19343;SDS011;9808;52.402;16.678;2023-05-07T02:56:49;19.87;;;8.53;;
19343;SDS011;9808;52.402;16.678;2023-05-07T02:59:16;15.87;;;8.40;;
19343;SDS011;9808;52.402;16.678;2023-05-07T03:01:43;15.03;;;8.03;;
19343;SDS011;9808;52.402;16.678;2023-05-07T03:04:11;16.87;;;8.03;;
19343;SDS011;9808;52.402;16.678;2023-05-07T03:06:38;19.07;;;8.33;;
19343;SDS011;9808;52.402;16.678;2023-05-07T03:09:06;17.77;;;8.60;;
19343;SDS011;9808;52.402;16.678;2023-05-07T03:11:34;15.87;;;8.17;;
19343;SDS011;9808;52.402;16.678;2023-05-07T03:14:02;20.73;;;9.10;;
19343;SDS011;9808;52.402;16.678;2023-05-07T03:16:29;18.87;;;7.83;;
19343;SDS011;9808;52.402;16.678;2023-05-07T03:18:56;15.60;;;8.60;;
19343;SDS011;9808;52.402;16.678;2023-05-07T03:21:24;14.77;;;8.43;;
19343;SDS011;9808;52.402;16.678;2023-05-07T03:23:52;14.53;;;8.13;;
19343;SDS011;9808;52.402;16.678;2023-05-07T03:26:19;16.17;;;8.67;;
19343;SDS011;9808;52.402;16.678;2023-05-07T03:28:47;16.47;;;8.30;;
19343;SDS011;9808;52.402;16.678;2023-05-07T03:31:14;15.43;;;8.27;;
19343;SDS011;9808;52.402;16.678;2023-05-07T03:33:52;17.13;;;8.00;;
19343;SDS011;9808;52.402;16.678;2023-05-07T03:36:19;15.73;;;8.10;;
19343;SDS011;9808;52.402;16.678;2023-05-07T03:38:47;17.20;;;8.57;;
19343;SDS011;9808;52.402;16.678;2023-05-07T03:41:15;14.60;;;7.93;;
19343;SDS011;9808;52.402;16.678;2023-05-07T03:43:42;20.43;;;8.17;;
19343;SDS011;9808;52.402;16.678;2023-05-07T03:46:10;14.67;;;8.10;;
19343;SDS011;9808;52.402;16.678;2023-05-07T03:48:37;18.50;;;8.53;;
19343;SDS011;9808;52.402;16.678;2023-05-07T03:51:04;18.23;;;8.57;;
19343;SDS011;9808;52.402;16.678;2023-05-07T03:53:32;19.87;;;8.07;;
19343;SDS011;9808;52.402;16.678;2023-05-07T03:55:59;14.97;;;7.93;;
19343;SDS011;9808;52.402;16.678;2023-05-07T03:58:26;16.10;;;8.03;;
19343;SDS011;9808;52.402;16.678;2023-05-07T04:00:54;15.67;;;7.00;;
19343;SDS011;9808;52.402;16.678;2023-05-07T04:03:22;15.40;;;7.47;;
19343;SDS011;9808;52.402;16.678;2023-05-07T04:05:49;15.13;;;7.10;;
19343;SDS011;9808;52.402;16.678;2023-05-07T04:08:16;15.83;;;7.73;;
19343;SDS011;9808;52.402;16.678;2023-05-07T04:10:43;13.27;;;7.40;;
19343;SDS011;9808;52.402;16.678;2023-05-07T04:13:11;15.60;;;6.87;;
19343;SDS011;9808;52.402;16.678;2023-05-07T04:15:38;14.53;;;7.30;;
19343;SDS011;9808;52.402;16.678;2023-05-07T04:18:05;16.30;;;7.30;;
19343;SDS011;9808;52.402;16.678;2023-05-07T04:20:33;16.43;;;7.27;;
19343;SDS011;9808;52.402;16.678;2023-05-07T04:23:02;13.57;;;7.10;;
19343;SDS011;9808;52.402;16.678;2023-05-07T04:25:30;12.33;;;7.00;;
19343;SDS011;9808;52.402;16.678;2023-05-07T04:27:57;15.83;;;7.53;;
19343;SDS011;9808;52.402;16.678;2023-05-07T04:30:24;13.00;;;6.93;;
19343;SDS011;9808;52.402;16.678;2023-05-07T04:32:52;13.53;;;7.30;;
19343;SDS011;9808;52.402;16.678;2023-05-07T04:35:19;13.40;;;6.60;;
19343;SDS011;9808;52.402;16.678;2023-05-07T04:37:46;16.60;;;7.63;;
19343;SDS011;9808;52.402;16.678;2023-05-07T04:40:14;18.47;;;7.07;;
19343;SDS011;9808;52.402;16.678;2023-05-07T04:42:42;13.57;;;6.93;;
19343;SDS011;9808;52.402;16.678;2023-05-07T04:45:09;13.23;;;6.53;;
19343;SDS011;9808;52.402;16.678;2023-05-07T04:47:36;13.97;;;6.80;;
19343;SDS011;9808;52.402;16.678;2023-05-07T04:50:04;13.47;;;6.70;;
19343;SDS011;9808;52.402;16.678;2023-05-07T04:52:31;13.07;;;7.10;;
19343;SDS011;9808;52.402;16.678;2023-05-07T04:54:59;13.37;;;7.17;;
19343;SDS011;9808;52.402;16.678;2023-05-07T04:57:27;20.73;;;6.67;;
19343;SDS011;9808;52.402;16.678;2023-05-07T04:59:54;11.37;;;6.43;;
19343;SDS011;9808;52.402;16.678;2023-05-07T05:02:21;11.50;;;6.23;;
19343;SDS011;9808;52.402;16.678;2023-05-07T05:04:48;13.20;;;6.27;;
19343;SDS011;9808;52.402;16.678;2023-05-07T05:07:16;11.67;;;5.90;;
19343;SDS011;9808;52.402;16.678;2023-05-07T05:09:43;10.27;;;5.50;;
19343;SDS011;9808;52.402;16.678;2023-05-07T05:12:11;12.80;;;6.10;;
19343;SDS011;9808;52.402;16.678;2023-05-07T05:14:38;10.20;;;5.70;;
19343;SDS011;9808;52.402;16.678;2023-05-07T05:17:05;10.87;;;5.83;;
19343;SDS011;9808;52.402;16.678;2023-05-07T05:19:32;14.27;;;6.40;;
19343;SDS011;9808;52.402;16.678;2023-05-07T05:21:59;15.73;;;6.10;;
19343;SDS011;9808;52.402;16.678;2023-05-07T05:24:30;11.60;;;5.80;;
19343;SDS011;9808;52.402;16.678;2023-05-07T05:26:57;13.63;;;5.77;;
19343;SDS011;9808;52.402;16.678;2023-05-07T05:29:27;12.83;;;5.83;;
19343;SDS011;9808;52.402;16.678;2023-05-07T05:31:54;13.13;;;5.80;;
19343;SDS011;9808;52.402;16.678;2023-05-07T05:34:22;9.73;;;5.10;;
19343;SDS011;9808;52.402;16.678;2023-05-07T05:36:49;10.23;;;4.90;;
19343;SDS011;9808;52.402;16.678;2023-05-07T05:39:16;13.07;;;5.40;;
19343;SDS011;9808;52.402;16.678;2023-05-07T05:41:44;10.43;;;4.80;;
19343;SDS011;9808;52.402;16.678;2023-05-07T05:44:12;8.40;;;4.50;;
19343;SDS011;9808;52.402;16.678;2023-05-07T05:46:39;9.30;;;4.00;;
19343;SDS011;9808;52.402;16.678;2023-05-07T05:49:06;8.47;;;3.57;;
19343;SDS011;9808;52.402;16.678;2023-05-07T05:51:34;9.90;;;3.90;;
19343;SDS011;9808;52.402;16.678;2023-05-07T05:54:02;9.47;;;3.40;;
19343;SDS011;9808;52.402;16.678;2023-05-07T05:56:29;7.07;;;3.50;;
19343;SDS011;9808;52.402;16.678;2023-05-07T05:58:56;9.97;;;3.40;;
19343;SDS011;9808;52.402;16.678;2023-05-07T06:01:23;8.43;;;3.60;;
19343;SDS011;9808;52.402;16.678;2023-05-07T06:03:51;7.10;;;3.30;;
19343;SDS011;9808;52.402;16.678;2023-05-07T06:06:19;6.33;;;3.00;;
19343;SDS011;9808;52.402;16.678;2023-05-07T06:08:46;6.43;;;3.13;;
19343;SDS011;9808;52.402;16.678;2023-05-07T06:11:13;7.37;;;3.30;;
19343;SDS011;9808;52.402;16.678;2023-05-07T06:13:40;6.90;;;3.33;;
19343;SDS011;9808;52.402;16.678;2023-05-07T06:16:08;7.47;;;3.20;;
19343;SDS011;9808;52.402;16.678;2023-05-07T06:18:35;9.00;;;3.20;;
19343;SDS011;9808;52.402;16.678;2023-05-07T06:21:02;6.50;;;3.00;;
19343;SDS011;9808;52.402;16.678;2023-05-07T06:23:29;10.37;;;3.80;;
19343;SDS011;9808;52.402;16.678;2023-05-07T06:25:56;8.67;;;3.53;;
19343;SDS011;9808;52.402;16.678;2023-05-07T06:28:23;8.13;;;3.80;;
19343;SDS011;9808;52.402;16.678;2023-05-07T06:30:51;6.50;;;3.20;;
19343;SDS011;9808;52.402;16.678;2023-05-07T06:33:18;5.60;;;2.70;;
19343;SDS011;9808;52.402;16.678;2023-05-07T06:35:46;5.67;;;2.60;;
19343;SDS011;9808;52.402;16.678;2023-05-07T06:38:13;9.83;;;3.27;;
19343;SDS011;9808;52.402;16.678;2023-05-07T06:40:40;11.03;;;2.70;;
19343;SDS011;9808;52.402;16.678;2023-05-07T06:43:07;5.43;;;2.30;;
19343;SDS011;9808;52.402;16.678;2023-05-07T06:45:34;5.27;;;2.60;;
19343;SDS011;9808;52.402;16.678;2023-05-07T06:48:02;7.50;;;2.50;;
19343;SDS011;9808;52.402;16.678;2023-05-07T06:50:30;9.37;;;3.30;;
19343;SDS011;9808;52.402;16.678;2023-05-07T06:52:57;5.97;;;2.47;;
19343;SDS011;9808;52.402;16.678;2023-05-07T06:55:25;5.37;;;2.53;;
19343;SDS011;9808;52.402;16.678;2023-05-07T06:57:52;5.77;;;2.00;;
19343;SDS011;9808;52.402;16.678;2023-05-07T07:00:19;6.70;;;2.23;;
19343;SDS011;9808;52.402;16.678;2023-05-07T07:02:46;6.07;;;2.30;;
19343;SDS011;9808;52.402;16.678;2023-05-07T07:05:14;4.50;;;2.20;;
19343;SDS011;9808;52.402;16.678;2023-05-07T07:07:41;5.37;;;2.47;;
19343;SDS011;9808;52.402;16.678;2023-05-07T07:10:08;6.33;;;2.47;;
19343;SDS011;9808;52.402;16.678;2023-05-07T07:12:36;7.13;;;2.43;;
19343;SDS011;9808;52.402;16.678;2023-05-07T07:15:04;6.57;;;2.30;;
19343;SDS011;9808;52.402;16.678;2023-05-07T07:17:31;5.00;;;2.17;;
19343;SDS011;9808;52.402;16.678;2023-05-07T07:19:58;4.13;;;1.90;;
19343;SDS011;9808;52.402;16.678;2023-05-07T07:22:26;5.57;;;2.00;;
19343;SDS011;9808;52.402;16.678;2023-05-07T07:24:53;3.57;;;1.73;;
19343;SDS011;9808;52.402;16.678;2023-05-07T07:27:20;3.33;;;1.60;;
19343;SDS011;9808;52.402;16.678;2023-05-07T07:29:48;5.47;;;1.80;;
19343;SDS011;9808;52.402;16.678;2023-05-07T07:32:15;3.43;;;1.63;;
19343;SDS011;9808;52.402;16.678;2023-05-07T07:34:42;3.40;;;1.57;;
19343;SDS011;9808;52.402;16.678;2023-05-07T07:37:10;4.80;;;1.57;;
19343;SDS011;9808;52.402;16.678;2023-05-07T07:39:37;7.67;;;1.73;;
19343;SDS011;9808;52.402;16.678;2023-05-07T07:42:04;4.77;;;1.70;;
19343;SDS011;9808;52.402;16.678;2023-05-07T07:44:31;6.23;;;1.97;;
19343;SDS011;9808;52.402;16.678;2023-05-07T07:46:59;2.67;;;1.33;;
19343;SDS011;9808;52.402;16.678;2023-05-07T07:49:26;5.33;;;1.60;;
19343;SDS011;9808;52.402;16.678;2023-05-07T07:51:53;3.47;;;1.33;;
19343;SDS011;9808;52.402;16.678;2023-05-07T07:54:22;3.50;;;1.30;;
19343;SDS011;9808;52.402;16.678;2023-05-07T07:56:49;4.30;;;1.20;;
19343;SDS011;9808;52.402;16.678;2023-05-07T07:59:17;2.27;;;1.30;;
19343;SDS011;9808;52.402;16.678;2023-05-07T08:01:45;3.13;;;1.37;;
19343;SDS011;9808;52.402;16.678;2023-05-07T08:04:14;3.63;;;1.53;;
19343;SDS011;9808;52.402;16.678;2023-05-07T08:06:41;4.67;;;1.43;;
19343;SDS011;9808;52.402;16.678;2023-05-07T08:09:09;5.83;;;1.80;;
19343;SDS011;9808;52.402;16.678;2023-05-07T08:11:36;3.63;;;1.67;;
19343;SDS011;9808;52.402;16.678;2023-05-07T08:14:03;3.37;;;1.57;;
19343;SDS011;9808;52.402;16.678;2023-05-07T08:16:31;5.17;;;1.37;;
19343;SDS011;9808;52.402;16.678;2023-05-07T08:18:58;3.77;;;1.53;;
19343;SDS011;9808;52.402;16.678;2023-05-07T08:21:25;4.20;;;1.67;;
19343;SDS011;9808;52.402;16.678;2023-05-07T08:23:53;4.40;;;1.47;;
19343;SDS011;9808;52.402;16.678;2023-05-07T08:26:20;5.33;;;1.80;;
19343;SDS011;9808;52.402;16.678;2023-05-07T08:28:47;2.70;;;1.40;;
19343;SDS011;9808;52.402;16.678;2023-05-07T08:31:14;3.70;;;1.60;;
19343;SDS011;9808;52.402;16.678;2023-05-07T08:33:42;3.77;;;1.33;;
19343;SDS011;9808;52.402;16.678;2023-05-07T08:36:09;7.67;;;1.50;;
19343;SDS011;9808;52.402;16.678;2023-05-07T08:38:36;3.63;;;1.50;;
19343;SDS011;9808;52.402;16.678;2023-05-07T08:41:03;2.47;;;1.43;;
19343;SDS011;9808;52.402;16.678;2023-05-07T08:43:33;2.23;;;1.40;;
19343;SDS011;9808;52.402;16.678;2023-05-07T08:46:03;3.45;;;1.70;;
19343;SDS011;9808;52.402;16.678;2023-05-07T08:48:34;7.00;;;1.73;;
19343;SDS011;9808;52.402;16.678;2023-05-07T08:51:02;4.60;;;1.90;;
19343;SDS011;9808;52.402;16.678;2023-05-07T08:53:29;4.30;;;1.80;;
19343;SDS011;9808;52.402;16.678;2023-05-07T08:55:56;3.73;;;1.77;;
19343;SDS011;9808;52.402;16.678;2023-05-07T08:58:24;6.30;;;1.80;;
19343;SDS011;9808;52.402;16.678;2023-05-07T09:00:52;7.07;;;1.60;;
19343;SDS011;9808;52.402;16.678;2023-05-07T09:03:20;5.15;;;2.10;;
19343;SDS011;9808;52.402;16.678;2023-05-07T09:05:48;3.63;;;1.70;;
19343;SDS011;9808;52.402;16.678;2023-05-07T09:08:15;4.00;;;1.77;;
19343;SDS011;9808;52.402;16.678;2023-05-07T09:10:43;3.77;;;1.67;;
19343;SDS011;9808;52.402;16.678;2023-05-07T09:13:14;4.38;;;1.80;;
19343;SDS011;9808;52.402;16.678;2023-05-07T09:15:41;6.13;;;1.70;;
19343;SDS011;9808;52.402;16.678;2023-05-07T09:18:09;4.37;;;1.83;;
19343;SDS011;9808;52.402;16.678;2023-05-07T09:20:37;4.60;;;2.13;;
19343;SDS011;9808;52.402;16.678;2023-05-07T09:23:05;5.05;;;1.83;;
19343;SDS011;9808;52.402;16.678;2023-05-07T09:25:34;5.10;;;1.80;;
19343;SDS011;9808;52.402;16.678;2023-05-07T09:28:02;3.92;;;1.80;;
19343;SDS011;9808;52.402;16.678;2023-05-07T09:30:30;4.40;;;1.60;;
19343;SDS011;9808;52.402;16.678;2023-05-07T09:32:58;4.68;;;1.70;;
19343;SDS011;9808;52.402;16.678;2023-05-07T09:35:26;3.55;;;1.80;;
19343;SDS011;9808;52.402;16.678;2023-05-07T09:37:53;5.30;;;1.93;;
19343;SDS011;9808;52.402;16.678;2023-05-07T09:40:22;5.28;;;1.73;;
19343;SDS011;9808;52.402;16.678;2023-05-07T09:42:50;4.18;;;1.98;;
19343;SDS011;9808;52.402;16.678;2023-05-07T09:45:29;4.07;;;2.00;;
19343;SDS011;9808;52.402;16.678;2023-05-07T09:47:57;3.47;;;1.50;;
19343;SDS011;9808;52.402;16.678;2023-05-07T09:50:28;4.30;;;1.83;;
19343;SDS011;9808;52.402;16.678;2023-05-07T09:52:56;3.53;;;1.75;;
19343;SDS011;9808;52.402;16.678;2023-05-07T09:55:24;6.07;;;1.98;;
19343;SDS011;9808;52.402;16.678;2023-05-07T09:57:52;3.00;;;1.65;;
19343;SDS011;9808;52.402;16.678;2023-05-07T10:00:22;4.00;;;1.90;;
19343;SDS011;9808;52.402;16.678;2023-05-07T10:02:50;4.00;;;2.00;;
19343;SDS011;9808;52.402;16.678;2023-05-07T10:05:18;3.67;;;1.63;;
19343;SDS011;9808;52.402;16.678;2023-05-07T10:07:49;3.80;;;2.00;;
19343;SDS011;9808;52.402;16.678;2023-05-07T10:10:17;4.35;;;1.83;;
19343;SDS011;9808;52.402;16.678;2023-05-07T10:12:45;4.35;;;1.95;;
19343;SDS011;9808;52.402;16.678;2023-05-07T10:15:12;3.45;;;2.00;;
19343;SDS011;9808;52.402;16.678;2023-05-07T10:17:41;6.00;;;2.10;;
19343;SDS011;9808;52.402;16.678;2023-05-07T10:20:08;9.48;;;2.05;;
19343;SDS011;9808;52.402;16.678;2023-05-07T10:22:40;4.35;;;1.65;;
19343;SDS011;9808;52.402;16.678;2023-05-07T10:25:14;4.13;;;1.92;;
19343;SDS011;9808;52.402;16.678;2023-05-07T10:27:42;4.57;;;1.73;;
19343;SDS011;9808;52.402;16.678;2023-05-07T10:32:59;4.25;;;1.90;;
19343;SDS011;9808;52.402;16.678;2023-05-07T10:35:36;3.08;;;1.50;;
19343;SDS011;9808;52.402;16.678;2023-05-07T10:38:04;3.10;;;1.60;;
19343;SDS011;9808;52.402;16.678;2023-05-07T10:40:32;4.65;;;2.03;;
19343;SDS011;9808;52.402;16.678;2023-05-07T10:43:00;5.57;;;1.90;;
19343;SDS011;9808;52.402;16.678;2023-05-07T10:45:28;4.93;;;2.15;;
19343;SDS011;9808;52.402;16.678;2023-05-07T10:48:13;3.58;;;1.80;;
19343;SDS011;9808;52.402;16.678;2023-05-07T10:50:44;3.60;;;1.60;;
19343;SDS011;9808;52.402;16.678;2023-05-07T10:55:51;4.90;;;1.60;;
19343;SDS011;9808;52.402;16.678;2023-05-07T11:01:01;4.57;;;2.00;;
19343;SDS011;9808;52.402;16.678;2023-05-07T11:03:28;3.20;;;1.80;;
19343;SDS011;9808;52.402;16.678;2023-05-07T11:06:17;4.68;;;1.98;;
19343;SDS011;9808;52.402;16.678;2023-05-07T11:08:53;5.18;;;1.90;;
19343;SDS011;9808;52.402;16.678;2023-05-07T11:11:43;4.97;;;1.83;;
19343;SDS011;9808;52.402;16.678;2023-05-07T11:14:08;2.90;;;1.58;;
19343;SDS011;9808;52.402;16.678;2023-05-07T11:16:36;3.60;;;1.77;;
19343;SDS011;9808;52.402;16.678;2023-05-07T11:19:04;4.70;;;1.75;;
19343;SDS011;9808;52.402;16.678;2023-05-07T11:23:58;3.75;;;1.52;;
19343;SDS011;9808;52.402;16.678;2023-05-07T11:26:27;3.78;;;1.60;;
19343;SDS011;9808;52.402;16.678;2023-05-07T11:28:54;2.83;;;1.40;;
19343;SDS011;9808;52.402;16.678;2023-05-07T11:31:23;3.67;;;1.50;;
19343;SDS011;9808;52.402;16.678;2023-05-07T11:33:52;3.47;;;1.50;;
19343;SDS011;9808;52.402;16.678;2023-05-07T11:36:21;4.50;;;1.70;;
19343;SDS011;9808;52.402;16.678;2023-05-07T11:38:48;2.75;;;1.30;;
19343;SDS011;9808;52.402;16.678;2023-05-07T11:41:16;4.32;;;1.67;;
19343;SDS011;9808;52.402;16.678;2023-05-07T11:43:57;3.30;;;1.38;;
19343;SDS011;9808;52.402;16.678;2023-05-07T11:46:25;4.85;;;1.60;;
19343;SDS011;9808;52.402;16.678;2023-05-07T11:48:52;6.13;;;1.80;;
19343;SDS011;9808;52.402;16.678;2023-05-07T11:51:20;5.60;;;2.55;;
19343;SDS011;9808;52.402;16.678;2023-05-07T11:53:48;5.30;;;2.58;;
19343;SDS011;9808;52.402;16.678;2023-05-07T11:56:16;5.32;;;2.42;;
19343;SDS011;9808;52.402;16.678;2023-05-07T11:58:43;4.68;;;1.77;;
19343;SDS011;9808;52.402;16.678;2023-05-07T12:01:11;3.45;;;1.40;;
19343;SDS011;9808;52.402;16.678;2023-05-07T12:03:40;4.32;;;1.30;;
19343;SDS011;9808;52.402;16.678;2023-05-07T12:06:13;5.32;;;1.48;;
19343;SDS011;9808;52.402;16.678;2023-05-07T12:08:41;2.60;;;1.33;;
19343;SDS011;9808;52.402;16.678;2023-05-07T12:11:22;2.83;;;1.23;;
19343;SDS011;9808;52.402;16.678;2023-05-07T12:13:49;3.97;;;1.45;;
19343;SDS011;9808;52.402;16.678;2023-05-07T12:16:16;2.67;;;1.58;;
19343;SDS011;9808;52.402;16.678;2023-05-07T12:18:44;3.03;;;1.38;;
19343;SDS011;9808;52.402;16.678;2023-05-07T12:21:12;3.58;;;1.42;;
19343;SDS011;9808;52.402;16.678;2023-05-07T12:23:39;3.72;;;1.60;;
19343;SDS011;9808;52.402;16.678;2023-05-07T12:26:06;6.38;;;1.60;;
19343;SDS011;9808;52.402;16.678;2023-05-07T12:28:36;3.78;;;1.35;;
19343;SDS011;9808;52.402;16.678;2023-05-07T12:31:05;3.50;;;1.45;;
19343;SDS011;9808;52.402;16.678;2023-05-07T12:33:33;3.50;;;1.40;;
19343;SDS011;9808;52.402;16.678;2023-05-07T12:36:05;2.00;;;1.15;;
19343;SDS011;9808;52.402;16.678;2023-05-07T12:38:34;3.13;;;1.55;;
19343;SDS011;9808;52.402;16.678;2023-05-07T12:41:02;3.55;;;1.35;;
19343;SDS011;9808;52.402;16.678;2023-05-07T12:43:30;3.15;;;1.70;;
19343;SDS011;9808;52.402;16.678;2023-05-07T12:45:57;10.57;;;2.10;;
19343;SDS011;9808;52.402;16.678;2023-05-07T12:48:27;3.88;;;1.40;;
19343;SDS011;9808;52.402;16.678;2023-05-07T12:50:54;3.70;;;1.50;;
19343;SDS011;9808;52.402;16.678;2023-05-07T12:53:23;3.22;;;1.60;;
19343;SDS011;9808;52.402;16.678;2023-05-07T12:55:51;5.55;;;1.50;;
19343;SDS011;9808;52.402;16.678;2023-05-07T12:58:19;3.78;;;1.50;;
19343;SDS011;9808;52.402;16.678;2023-05-07T13:00:48;4.13;;;1.58;;
19343;SDS011;9808;52.402;16.678;2023-05-07T13:03:29;4.25;;;1.80;;
19343;SDS011;9808;52.402;16.678;2023-05-07T13:06:01;4.05;;;1.70;;
19343;SDS011;9808;52.402;16.678;2023-05-07T13:08:30;3.53;;;1.70;;
19343;SDS011;9808;52.402;16.678;2023-05-07T13:10:58;3.40;;;1.67;;
19343;SDS011;9808;52.402;16.678;2023-05-07T13:13:26;7.07;;;1.60;;
19343;SDS011;9808;52.402;16.678;2023-05-07T13:15:57;11.00;;;1.90;;
19343;SDS011;9808;52.402;16.678;2023-05-07T13:18:25;3.03;;;1.58;;
19343;SDS011;9808;52.402;16.678;2023-05-07T13:20:53;4.78;;;1.70;;
19343;SDS011;9808;52.402;16.678;2023-05-07T13:23:20;4.07;;;1.65;;
19343;SDS011;9808;52.402;16.678;2023-05-07T13:25:47;3.80;;;1.90;;
19343;SDS011;9808;52.402;16.678;2023-05-07T13:28:15;4.43;;;1.92;;
19343;SDS011;9808;52.402;16.678;2023-05-07T13:30:42;3.45;;;1.80;;
19343;SDS011;9808;52.402;16.678;2023-05-07T13:33:09;6.07;;;1.83;;
19343;SDS011;9808;52.402;16.678;2023-05-07T13:35:37;5.40;;;2.03;;
19343;SDS011;9808;52.402;16.678;2023-05-07T13:38:04;5.40;;;1.80;;
19343;SDS011;9808;52.402;16.678;2023-05-07T13:40:32;12.73;;;2.30;;
19343;SDS011;9808;52.402;16.678;2023-05-07T13:42:59;5.18;;;2.35;;
19343;SDS011;9808;52.402;16.678;2023-05-07T13:45:28;7.53;;;2.28;;
19343;SDS011;9808;52.402;16.678;2023-05-07T13:47:56;4.93;;;2.13;;
19343;SDS011;9808;52.402;16.678;2023-05-07T13:50:24;4.82;;;2.00;;
19343;SDS011;9808;52.402;16.678;2023-05-07T13:52:53;3.30;;;1.63;;
19343;SDS011;9808;52.402;16.678;2023-05-07T13:55:20;4.07;;;1.90;;
19343;SDS011;9808;52.402;16.678;2023-05-07T13:57:54;3.80;;;1.58;;
19343;SDS011;9808;52.402;16.678;2023-05-07T14:00:23;4.38;;;2.35;;
19343;SDS011;9808;52.402;16.678;2023-05-07T14:02:50;5.40;;;1.90;;
19343;SDS011;9808;52.402;16.678;2023-05-07T14:05:18;3.95;;;1.67;;
19343;SDS011;9808;52.402;16.678;2023-05-07T14:07:45;3.75;;;1.70;;
19343;SDS011;9808;52.402;16.678;2023-05-07T14:10:13;3.75;;;1.90;;
19343;SDS011;9808;52.402;16.678;2023-05-07T14:12:41;4.45;;;1.85;;
19343;SDS011;9808;52.402;16.678;2023-05-07T14:15:08;3.85;;;1.75;;
19343;SDS011;9808;52.402;16.678;2023-05-07T14:17:35;3.72;;;2.13;;
19343;SDS011;9808;52.402;16.678;2023-05-07T14:20:03;4.03;;;1.67;;
19343;SDS011;9808;52.402;16.678;2023-05-07T14:22:32;3.97;;;1.80;;
19343;SDS011;9808;52.402;16.678;2023-05-07T14:24:59;4.63;;;1.50;;
19343;SDS011;9808;52.402;16.678;2023-05-07T14:27:32;4.32;;;1.70;;
19343;SDS011;9808;52.402;16.678;2023-05-07T14:29:59;3.05;;;1.58;;
19343;SDS011;9808;52.402;16.678;2023-05-07T14:32:27;5.63;;;1.50;;
19343;SDS011;9808;52.402;16.678;2023-05-07T14:34:54;4.68;;;1.90;;
19343;SDS011;9808;52.402;16.678;2023-05-07T14:37:22;4.03;;;1.90;;
19343;SDS011;9808;52.402;16.678;2023-05-07T14:39:49;7.53;;;2.10;;
19343;SDS011;9808;52.402;16.678;2023-05-07T14:42:16;3.03;;;1.55;;
19343;SDS011;9808;52.402;16.678;2023-05-07T14:44:44;5.32;;;1.83;;
19343;SDS011;9808;52.402;16.678;2023-05-07T14:47:12;6.03;;;1.95;;
19343;SDS011;9808;52.402;16.678;2023-05-07T14:49:42;4.63;;;1.52;;
19343;SDS011;9808;52.402;16.678;2023-05-07T14:52:09;3.42;;;1.55;;
19343;SDS011;9808;52.402;16.678;2023-05-07T14:54:37;3.92;;;1.70;;
19343;SDS011;9808;52.402;16.678;2023-05-07T14:57:05;8.23;;;1.80;;
19343;SDS011;9808;52.402;16.678;2023-05-07T14:59:33;4.97;;;2.15;;